createdAt,value
2023-05-10T00:00:57.012Z,4.50
2023-05-10T00:03:24.260Z,4.70
2023-05-10T00:05:51.227Z,3.80
2023-05-10T00:08:18.159Z,3.30
2023-05-10T00:10:45.161Z,4.60
2023-05-10T00:13:12.144Z,4.90
2023-05-10T00:15:39.058Z,4.40
2023-05-10T00:18:06.471Z,4.70
2023-05-10T00:20:33.503Z,4.60
2023-05-10T00:23:00.518Z,4.40
2023-05-10T00:25:27.649Z,4.10
2023-05-10T00:27:56.553Z,3.90
2023-05-10T00:30:23.513Z,3.90
2023-05-10T00:32:50.981Z,3.50
2023-05-10T00:35:18.038Z,4.50
2023-05-10T00:37:44.959Z,4.20
2023-05-10T00:40:12.489Z,4.30
2023-05-10T00:42:40.696Z,5.50
2023-05-10T00:45:08.362Z,4.70
2023-05-10T00:47:36.301Z,3.80
2023-05-10T00:50:03.834Z,3.50
2023-05-10T00:52:31.525Z,3.10
2023-05-10T00:54:59.695Z,4.10
2023-05-10T00:57:26.709Z,5.60
2023-05-10T00:59:53.797Z,4.30
2023-05-10T01:02:20.783Z,4.90
2023-05-10T01:04:48.544Z,3.90
2023-05-10T01:07:15.616Z,4.30
2023-05-10T01:09:44.015Z,3.20
2023-05-10T01:12:12.557Z,3.70
2023-05-10T01:14:39.901Z,4.40
2023-05-10T01:17:08.561Z,3.50
2023-05-10T01:19:38.133Z,5.20
2023-05-10T01:22:48.420Z,4.20
2023-05-10T01:25:40.513Z,4.10
2023-05-10T01:28:22.859Z,3.10
2023-05-10T01:31:10.239Z,5.30
2023-05-10T01:33:53.619Z,5.60
2023-05-10T01:36:39.093Z,3.30
2023-05-10T01:39:15.776Z,4.50
2023-05-10T01:42:05.162Z,4.60
2023-05-10T01:45:01.032Z,4.20
2023-05-10T01:47:38.843Z,4.80
2023-05-10T01:50:26.383Z,3.30
2023-05-10T01:52:56.096Z,3.30
2023-05-10T01:55:26.621Z,3.40
2023-05-10T01:58:03.702Z,3.90
2023-05-10T02:00:32.574Z,4.30
2023-05-10T02:03:05.247Z,4.40
2023-05-10T02:05:34.573Z,4.70
2023-05-10T02:08:04.186Z,2.40
2023-05-10T02:10:32.265Z,3.30
2023-05-10T02:13:01.494Z,3.40
2023-05-10T02:15:29.841Z,4.00
2023-05-10T02:17:58.760Z,3.90
2023-05-10T02:20:27.312Z,4.90
2023-05-10T02:22:57.218Z,4.90
2023-05-10T02:25:26.329Z,3.70
2023-05-10T02:27:57.252Z,3.10
2023-05-10T02:30:25.329Z,3.50
2023-05-10T02:32:53.526Z,3.80
2023-05-10T02:35:22.289Z,4.40
2023-05-10T02:37:49.960Z,5.10
2023-05-10T02:40:19.592Z,4.40
2023-05-10T02:42:48.658Z,3.70
2023-05-10T02:45:20.831Z,2.70
2023-05-10T02:47:48.499Z,3.50
2023-05-10T02:50:16.347Z,3.30
2023-05-10T02:52:55.690Z,4.10
2023-05-10T02:55:33.586Z,3.90
2023-05-10T02:58:02.696Z,4.40
2023-05-10T03:00:30.667Z,4.50
2023-05-10T03:02:57.939Z,4.00
2023-05-10T03:05:25.568Z,3.20
2023-05-10T03:07:53.943Z,3.90
2023-05-10T03:10:27.852Z,3.40
2023-05-10T03:13:06.291Z,6.10
2023-05-10T03:16:05.700Z,3.40
2023-05-10T03:18:42.695Z,3.40
2023-05-10T03:21:13.693Z,4.00
2023-05-10T03:23:47.260Z,3.60
2023-05-10T03:26:21.818Z,3.40
2023-05-10T03:28:51.014Z,3.70
2023-05-10T03:31:18.804Z,4.00
2023-05-10T03:33:50.466Z,4.40
2023-05-10T03:36:20.768Z,4.60
2023-05-10T03:38:48.071Z,4.30
2023-05-10T03:41:15.477Z,3.50
2023-05-10T03:43:42.737Z,3.00
2023-05-10T03:46:09.772Z,3.40
2023-05-10T03:48:36.920Z,4.60
2023-05-10T03:51:03.945Z,3.60
2023-05-10T03:53:31.118Z,4.90
2023-05-10T03:55:58.470Z,4.60
2023-05-10T03:58:26.145Z,3.60
2023-05-10T04:00:53.502Z,3.40
2023-05-10T04:03:21.637Z,4.10
2023-05-10T04:05:48.826Z,2.90
2023-05-10T04:08:17.542Z,5.10
2023-05-10T04:10:44.756Z,3.50
2023-05-10T04:13:12.379Z,4.30
2023-05-10T04:15:39.558Z,4.50
2023-05-10T04:18:08.863Z,4.90
2023-05-10T04:20:36.119Z,2.70
2023-05-10T04:23:03.060Z,4.40
2023-05-10T04:25:30.041Z,3.70
2023-05-10T04:27:57.054Z,3.60
2023-05-10T04:30:23.999Z,4.40
2023-05-10T04:32:50.980Z,4.40
2023-05-10T04:35:18.088Z,3.80
2023-05-10T04:37:45.141Z,2.90
2023-05-10T04:40:12.604Z,2.60
2023-05-10T04:42:42.822Z,3.90
2023-05-10T04:45:10.884Z,3.00
2023-05-10T04:47:38.391Z,4.10
2023-05-10T04:50:07.853Z,3.90
2023-05-10T04:52:34.798Z,4.00
2023-05-10T04:55:01.849Z,3.20
2023-05-10T04:57:28.913Z,3.10
2023-05-10T04:59:55.834Z,4.50
2023-05-10T05:02:23.066Z,4.20
2023-05-10T05:04:50.133Z,3.50
2023-05-10T05:07:17.054Z,4.50
2023-05-10T05:09:43.947Z,3.40
2023-05-10T05:12:15.299Z,3.90
2023-05-10T05:14:42.521Z,3.80
2023-05-10T05:17:09.463Z,3.60
2023-05-10T05:19:36.977Z,3.30
2023-05-10T05:22:04.209Z,4.60
2023-05-10T05:24:37.024Z,3.70
2023-05-10T05:27:04.105Z,4.30
2023-05-10T05:29:31.154Z,5.00
2023-05-10T05:31:58.156Z,2.70
2023-05-10T05:34:25.453Z,4.00
2023-05-10T05:36:53.012Z,4.00
2023-05-10T05:39:19.885Z,4.30
2023-05-10T05:41:47.850Z,4.30
2023-05-10T05:44:14.770Z,3.00
2023-05-10T05:46:41.822Z,4.10
2023-05-10T05:49:08.765Z,4.10
2023-05-10T05:51:37.838Z,4.30
2023-05-10T05:54:05.727Z,5.40
2023-05-10T05:56:32.712Z,4.50
2023-05-10T05:58:59.720Z,4.80
2023-05-10T06:01:26.678Z,4.30
2023-05-10T06:03:53.856Z,5.60
2023-05-10T06:06:21.082Z,4.30
2023-05-10T06:08:47.961Z,3.90
2023-05-10T06:11:14.958Z,5.20
2023-05-10T06:13:43.364Z,4.20
2023-05-10T06:16:10.514Z,3.70
2023-05-10T06:18:37.455Z,4.70
2023-05-10T06:21:04.580Z,5.70
2023-05-10T06:23:32.427Z,3.90
2023-05-10T06:25:59.600Z,5.40
2023-05-10T06:28:26.587Z,3.40
2023-05-10T06:30:53.600Z,3.60
2023-05-10T06:33:20.860Z,4.20
2023-05-10T06:35:47.710Z,5.80
2023-05-10T06:38:14.638Z,5.60
2023-05-10T06:40:45.053Z,5.30
2023-05-10T06:43:12.002Z,9.30
2023-05-10T06:45:39.156Z,4.50
2023-05-10T06:48:06.665Z,3.90
2023-05-10T06:50:34.475Z,3.70
2023-05-10T06:53:03.052Z,5.50
2023-05-10T06:55:30.645Z,4.50
2023-05-10T06:57:58.688Z,7.40
2023-05-10T07:00:25.842Z,5.00
2023-05-10T07:02:53.177Z,12.30
2023-05-10T07:05:21.417Z,9.60
2023-05-10T07:07:49.129Z,3.50
2023-05-10T07:10:22.086Z,5.00
2023-05-10T07:12:56.888Z,5.30
2023-05-10T07:15:29.402Z,8.50
2023-05-10T07:18:02.980Z,5.40
2023-05-10T07:20:36.643Z,6.70
2023-05-10T07:23:11.438Z,5.60
2023-05-10T07:25:42.779Z,3.50
2023-05-10T07:28:09.947Z,2.90
2023-05-10T07:30:37.304Z,3.00
2023-05-10T07:33:04.346Z,4.70
2023-05-10T07:35:34.297Z,4.40
2023-05-10T07:38:02.246Z,3.50
2023-05-10T07:40:30.147Z,7.40
2023-05-10T07:42:57.648Z,4.60
2023-05-10T07:45:24.920Z,2.80
2023-05-10T07:47:52.132Z,4.60
2023-05-10T07:50:20.214Z,4.30
2023-05-10T07:52:47.448Z,6.60
2023-05-10T07:55:14.710Z,5.50
2023-05-10T07:57:42.296Z,7.20
2023-05-10T08:00:10.704Z,6.90
2023-05-10T08:02:41.909Z,4.50
2023-05-10T08:05:09.277Z,4.10
2023-05-10T08:07:36.629Z,5.30
2023-05-10T08:10:04.721Z,4.50
2023-05-10T08:12:34.625Z,7.10
2023-05-10T08:15:01.870Z,4.90
2023-05-10T08:17:29.560Z,6.30
2023-05-10T08:19:56.622Z,4.00
2023-05-10T08:22:23.837Z,6.80
2023-05-10T08:24:50.878Z,7.10
2023-05-10T08:27:17.771Z,5.90
2023-05-10T08:29:50.187Z,6.60
2023-05-10T08:32:18.354Z,9.70
2023-05-10T08:34:45.530Z,6.90
2023-05-10T08:37:14.503Z,7.30
2023-05-10T08:39:41.940Z,6.10
2023-05-10T08:42:11.024Z,7.60
2023-05-10T08:44:38.521Z,7.90
2023-05-10T08:47:10.308Z,5.70
2023-05-10T08:49:39.170Z,7.60
2023-05-10T08:52:10.103Z,5.50
2023-05-10T08:54:39.830Z,5.60
2023-05-10T08:57:07.476Z,5.10
2023-05-10T08:59:35.161Z,6.90
2023-05-10T09:02:03.468Z,5.50
2023-05-10T09:04:31.037Z,5.30
2023-05-10T09:06:58.748Z,6.60
2023-05-10T09:09:27.327Z,8.00
2023-05-10T09:11:55.497Z,6.70
2023-05-10T09:14:26.068Z,7.90
2023-05-10T09:16:55.471Z,3.50
2023-05-10T09:19:22.409Z,5.00
2023-05-10T09:21:50.555Z,8.00
2023-05-10T09:24:17.399Z,6.80
2023-05-10T09:26:49.706Z,9.50
2023-05-10T09:29:17.645Z,9.90
2023-05-10T09:31:47.513Z,5.90
2023-05-10T09:34:29.597Z,6.00
2023-05-10T09:36:59.179Z,5.90
2023-05-10T09:39:33.477Z,7.30
2023-05-10T09:42:04.828Z,5.00
2023-05-10T09:44:32.818Z,5.00
2023-05-10T09:47:00.321Z,5.00
2023-05-10T09:49:27.895Z,5.60
2023-05-10T09:52:06.658Z,6.00
2023-05-10T09:54:35.155Z,6.80
2023-05-10T09:57:02.505Z,7.90
2023-05-10T09:59:30.946Z,11.20
2023-05-10T10:01:59.676Z,6.10
2023-05-10T10:04:27.474Z,7.80
2023-05-10T10:07:05.477Z,10.50
2023-05-10T10:09:33.660Z,21.10
2023-05-10T10:12:01.695Z,39.90
2023-05-10T10:14:29.648Z,46.40
2023-05-10T10:17:07.439Z,58.10
2023-05-10T10:19:37.077Z,45.60
2023-05-10T10:22:04.504Z,47.10
2023-05-10T10:24:31.551Z,55.90
2023-05-10T10:27:05.666Z,61.00
2023-05-10T10:29:45.623Z,62.50
2023-05-10T10:32:34.374Z,67.20
2023-05-10T10:35:01.584Z,64.20
2023-05-10T10:37:46.665Z,63.70
2023-05-10T10:40:33.631Z,64.60
2023-05-10T10:43:25.463Z,66.40
2023-05-10T10:46:18.576Z,68.80
2023-05-10T10:48:52.636Z,68.70
2023-05-10T10:51:19.827Z,68.90
2023-05-10T10:53:49.402Z,65.10
2023-05-10T10:56:16.945Z,62.10
2023-05-10T10:58:52.624Z,65.50
2023-05-10T11:01:20.873Z,66.90
2023-05-10T11:04:00.336Z,66.60
2023-05-10T11:06:35.014Z,62.50
2023-05-10T11:09:14.604Z,63.20
2023-05-10T11:11:59.619Z,59.50
2023-05-10T11:14:27.053Z,46.00
2023-05-10T11:16:54.176Z,45.20
2023-05-10T11:19:21.452Z,51.00
2023-05-10T11:21:51.799Z,50.30
2023-05-10T11:24:21.647Z,50.50
2023-05-10T11:26:53.448Z,49.90
2023-05-10T11:29:21.547Z,47.80
2023-05-10T11:31:50.414Z,47.00
2023-05-10T11:34:28.004Z,47.60
2023-05-10T11:36:56.232Z,45.00
2023-05-10T11:39:27.948Z,46.50
2023-05-10T11:41:55.910Z,43.40
2023-05-10T11:44:23.037Z,45.70
2023-05-10T11:46:51.046Z,45.40
2023-05-10T11:49:18.278Z,42.60
2023-05-10T11:51:45.860Z,40.50
2023-05-10T11:54:13.734Z,42.90
2023-05-10T11:56:42.194Z,33.70
2023-05-10T11:59:09.771Z,29.80
2023-05-10T12:01:37.311Z,38.70
2023-05-10T12:04:04.981Z,40.60
2023-05-10T12:06:37.767Z,42.80
2023-05-10T12:09:09.153Z,38.70
2023-05-10T12:11:43.310Z,41.60
2023-05-10T12:14:11.694Z,41.80
2023-05-10T12:16:38.869Z,37.10
2023-05-10T12:19:06.735Z,34.50
2023-05-10T12:21:34.535Z,29.40
2023-05-10T12:24:06.350Z,34.50
2023-05-10T12:26:34.091Z,36.30
2023-05-10T12:29:19.178Z,34.10
2023-05-10T12:32:03.552Z,36.00
2023-05-10T12:34:37.208Z,37.20
2023-05-10T12:37:04.880Z,39.70
2023-05-10T12:39:43.587Z,28.70
2023-05-10T12:42:11.233Z,26.40
2023-05-10T12:44:39.274Z,27.80
2023-05-10T12:47:07.260Z,29.30
2023-05-10T12:49:35.300Z,31.80
2023-05-10T12:52:02.837Z,32.60
2023-05-10T12:54:34.411Z,33.00
2023-05-10T12:57:01.456Z,30.50
2023-05-10T12:59:28.585Z,24.30
2023-05-10T13:01:55.639Z,24.50
2023-05-10T13:04:22.684Z,30.00
2023-05-10T13:06:49.730Z,30.80
2023-05-10T13:09:16.653Z,29.50
2023-05-10T13:11:44.226Z,24.90
2023-05-10T13:14:11.122Z,25.90
2023-05-10T13:16:38.228Z,26.60
2023-05-10T13:19:05.728Z,23.00
2023-05-10T13:21:32.832Z,22.60
2023-05-10T13:23:59.976Z,25.30
2023-05-10T13:26:27.505Z,27.80
2023-05-10T13:28:56.756Z,24.20
2023-05-10T13:31:23.790Z,29.90
2023-05-10T13:33:51.037Z,24.60
2023-05-10T13:36:18.498Z,24.30
2023-05-10T13:38:45.442Z,18.80
2023-05-10T13:41:12.485Z,22.30
2023-05-10T13:43:39.435Z,22.20
2023-05-10T13:46:06.511Z,22.40
2023-05-10T13:48:34.856Z,25.30
2023-05-10T13:51:03.069Z,28.60
2023-05-10T13:53:30.327Z,23.70
2023-05-10T13:55:57.345Z,22.00
2023-05-10T13:58:24.809Z,20.80
2023-05-10T14:00:51.693Z,21.20
2023-05-10T14:03:18.817Z,22.20
2023-05-10T14:05:46.444Z,21.80
2023-05-10T14:08:14.519Z,25.40
2023-05-10T14:10:41.498Z,21.50
2023-05-10T14:13:09.127Z,21.20
2023-05-10T14:15:36.174Z,20.80
2023-05-10T14:18:03.727Z,18.50
2023-05-10T14:20:31.134Z,17.70
2023-05-10T14:22:58.092Z,19.40
2023-05-10T14:25:25.487Z,20.10
2023-05-10T14:27:52.530Z,21.50
2023-05-10T14:30:19.787Z,20.10
2023-05-10T14:32:46.694Z,24.00
2023-05-10T14:35:15.566Z,18.60
2023-05-10T14:37:44.715Z,18.60
2023-05-10T14:40:12.235Z,17.60
2023-05-10T14:42:39.630Z,19.10
2023-05-10T14:45:07.089Z,18.00
2023-05-10T14:47:34.453Z,19.90
2023-05-10T14:50:01.424Z,17.80
2023-05-10T14:52:29.271Z,19.70
2023-05-10T14:54:56.497Z,15.80
2023-05-10T14:57:23.546Z,18.40
2023-05-10T14:59:50.497Z,17.90
2023-05-10T15:02:18.162Z,16.30
2023-05-10T15:04:45.505Z,16.90
2023-05-10T15:07:15.640Z,19.30
2023-05-10T15:09:42.967Z,19.70
2023-05-10T15:12:09.866Z,15.40
2023-05-10T15:14:37.508Z,16.40
2023-05-10T15:17:05.125Z,14.00
2023-05-10T15:19:32.105Z,17.20
2023-05-10T15:21:58.990Z,15.50
2023-05-10T15:24:26.794Z,19.30
2023-05-10T15:26:53.801Z,20.10
2023-05-10T15:29:21.141Z,16.50
2023-05-10T15:31:49.302Z,14.80
2023-05-10T15:34:16.526Z,14.40
2023-05-10T15:36:43.649Z,11.60
2023-05-10T15:39:10.735Z,13.60
2023-05-10T15:41:37.628Z,16.10
2023-05-10T15:44:05.127Z,15.40
2023-05-10T15:46:32.364Z,16.00
2023-05-10T15:49:02.610Z,14.80
2023-05-10T15:51:30.032Z,15.50
2023-05-10T15:54:06.600Z,13.20
2023-05-10T15:56:35.379Z,12.20
2023-05-10T15:59:02.610Z,14.50
2023-05-10T16:01:30.999Z,15.20
2023-05-10T16:03:58.153Z,15.30
2023-05-10T16:06:25.312Z,13.40
2023-05-10T16:08:54.709Z,14.50
2023-05-10T16:11:22.187Z,16.90
2023-05-10T16:13:49.267Z,12.00
2023-05-10T16:16:17.546Z,12.60
2023-05-10T16:18:44.574Z,14.00
2023-05-10T16:21:11.954Z,13.40
2023-05-10T16:23:38.821Z,14.80
2023-05-10T16:26:05.729Z,14.90
2023-05-10T16:28:33.492Z,16.50
2023-05-10T16:31:01.712Z,17.20
2023-05-10T16:33:29.131Z,13.80
2023-05-10T16:35:57.288Z,12.70
2023-05-10T16:38:24.441Z,13.40
2023-05-10T16:40:51.353Z,13.30
2023-05-10T16:43:18.503Z,14.20
2023-05-10T16:45:45.488Z,14.70
2023-05-10T16:48:12.941Z,14.80
2023-05-10T16:50:43.981Z,13.60
2023-05-10T16:53:11.848Z,15.20
2023-05-10T16:55:38.894Z,13.20
2023-05-10T16:58:06.365Z,16.50
2023-05-10T17:00:33.522Z,14.70
2023-05-10T17:03:00.539Z,14.20
2023-05-10T17:05:27.748Z,15.90
2023-05-10T17:07:54.954Z,14.40
2023-05-10T17:10:22.331Z,13.00
2023-05-10T17:12:49.458Z,14.40
2023-05-10T17:15:17.788Z,13.10
2023-05-10T17:17:45.838Z,15.30
2023-05-10T17:20:12.990Z,14.60
2023-05-10T17:22:43.349Z,13.90
2023-05-10T17:25:10.728Z,15.20
2023-05-10T17:27:37.665Z,12.90
2023-05-10T17:30:05.763Z,13.30
2023-05-10T17:32:35.598Z,15.40
2023-05-10T17:35:05.374Z,15.70
2023-05-10T17:37:35.640Z,15.20
2023-05-10T17:40:04.006Z,11.30
2023-05-10T17:42:30.810Z,11.10
2023-05-10T17:44:57.711Z,13.00
2023-05-10T17:47:25.215Z,13.30
2023-05-10T17:49:52.371Z,13.40
2023-05-10T17:52:19.805Z,12.80
2023-05-10T17:54:47.626Z,12.70
2023-05-10T17:57:14.542Z,14.30
2023-05-10T17:59:44.650Z,13.90
2023-05-10T18:02:12.429Z,14.80
2023-05-10T18:04:43.814Z,13.40
2023-05-10T18:07:11.667Z,18.90
2023-05-10T18:09:38.648Z,13.00
2023-05-10T18:12:06.410Z,12.20
2023-05-10T18:14:40.485Z,11.80
2023-05-10T18:17:09.997Z,9.80
2023-05-10T18:19:37.385Z,12.00
2023-05-10T18:22:04.587Z,11.10
2023-05-10T18:24:38.264Z,11.40
2023-05-10T18:27:08.285Z,13.40
2023-05-10T18:29:36.432Z,11.30
2023-05-10T18:32:09.729Z,13.90
2023-05-10T18:34:39.271Z,14.60
2023-05-10T18:37:08.102Z,11.40
2023-05-10T18:39:36.645Z,13.00
2023-05-10T18:42:05.522Z,15.00
2023-05-10T18:44:33.501Z,14.10
2023-05-10T18:47:00.639Z,10.80
2023-05-10T18:49:29.720Z,14.30
2023-05-10T18:51:59.587Z,11.30
2023-05-10T18:54:27.114Z,12.40
2023-05-10T18:56:54.059Z,15.20
2023-05-10T18:59:20.944Z,13.10
2023-05-10T19:01:50.182Z,16.10
2023-05-10T19:04:18.417Z,14.70
2023-05-10T19:06:45.529Z,12.70
2023-05-10T19:09:12.570Z,15.20
2023-05-10T19:11:39.922Z,14.40
2023-05-10T19:14:06.839Z,14.20
2023-05-10T19:16:35.932Z,14.10
2023-05-10T19:19:03.038Z,13.40
2023-05-10T19:21:30.538Z,12.80
2023-05-10T19:23:57.948Z,11.70
2023-05-10T19:26:26.634Z,11.60
2023-05-10T19:28:54.180Z,13.90
2023-05-10T19:31:22.172Z,13.90
2023-05-10T19:33:49.601Z,12.80
2023-05-10T19:36:16.685Z,13.20
2023-05-10T19:38:43.702Z,11.50
2023-05-10T19:41:11.813Z,13.20
2023-05-10T19:43:40.037Z,14.30
2023-05-10T19:46:07.055Z,13.70
2023-05-10T19:48:34.067Z,12.20
2023-05-10T19:51:08.431Z,12.40
2023-05-10T19:53:36.533Z,11.70
2023-05-10T19:56:07.676Z,14.00
2023-05-10T19:58:34.704Z,12.70
2023-05-10T20:01:02.818Z,10.60
2023-05-10T20:03:30.678Z,11.60
2023-05-10T20:05:57.706Z,11.30
2023-05-10T20:08:25.584Z,11.10
2023-05-10T20:10:52.815Z,11.40
2023-05-10T20:13:19.870Z,11.80
2023-05-10T20:15:47.111Z,11.00
2023-05-10T20:18:14.245Z,10.90
2023-05-10T20:20:41.721Z,10.80
2023-05-10T20:23:08.702Z,11.90
2023-05-10T20:25:36.020Z,9.90
2023-05-10T20:28:04.191Z,10.70
2023-05-10T20:30:31.557Z,13.60
2023-05-10T20:32:59.354Z,11.60
2023-05-10T20:35:26.562Z,10.80
2023-05-10T20:37:54.238Z,11.40
2023-05-10T20:40:21.962Z,9.90
2023-05-10T20:42:49.861Z,9.90
2023-05-10T20:45:17.223Z,8.20
2023-05-10T20:47:44.412Z,9.30
2023-05-10T20:50:11.918Z,10.00
2023-05-10T20:52:38.859Z,11.30
2023-05-10T20:55:06.541Z,11.20
2023-05-10T20:57:33.578Z,12.10
2023-05-10T21:00:00.848Z,10.10
2023-05-10T21:02:28.529Z,10.00
2023-05-10T21:04:57.822Z,9.60
2023-05-10T21:07:25.260Z,13.40
2023-05-10T21:09:52.628Z,10.00
2023-05-10T21:12:19.756Z,9.70
2023-05-10T21:14:48.021Z,10.60
2023-05-10T21:17:20.211Z,10.10
2023-05-10T21:19:48.445Z,9.60
2023-05-10T21:22:16.775Z,10.10
2023-05-10T21:24:44.008Z,9.70
2023-05-10T21:27:11.360Z,9.20
2023-05-10T21:29:38.357Z,10.70
2023-05-10T21:32:08.285Z,8.50
2023-05-10T21:34:35.380Z,7.70
2023-05-10T21:37:02.384Z,7.80
2023-05-10T21:39:29.885Z,8.80
2023-05-10T21:41:57.894Z,9.20
2023-05-10T21:44:28.278Z,8.90
2023-05-10T21:46:55.542Z,11.00
2023-05-10T21:49:22.854Z,10.50
2023-05-10T21:51:50.025Z,8.20
2023-05-10T21:54:17.176Z,9.40
2023-05-10T21:56:44.124Z,9.90
2023-05-10T21:59:11.469Z,10.00
2023-05-10T22:01:39.111Z,8.90
2023-05-10T22:04:06.312Z,9.50
2023-05-10T22:06:33.342Z,8.70
2023-05-10T22:09:00.378Z,8.90
2023-05-10T22:11:27.641Z,8.90
2023-05-10T22:13:54.695Z,8.00
2023-05-10T22:16:21.860Z,8.40
2023-05-10T22:18:49.381Z,10.90
2023-05-10T22:21:16.610Z,8.30
2023-05-10T22:23:43.603Z,8.80
2023-05-10T22:26:10.632Z,8.60
2023-05-10T22:28:37.796Z,5.90
2023-05-10T22:31:09.798Z,8.20
2023-05-10T22:33:36.691Z,8.80
2023-05-10T22:36:04.045Z,10.20
2023-05-10T22:38:31.100Z,8.90
2023-05-10T22:40:58.973Z,7.00
2023-05-10T22:43:25.900Z,7.90
2023-05-10T22:45:53.666Z,9.10
2023-05-10T22:48:21.318Z,9.10
2023-05-10T22:50:48.212Z,9.40
2023-05-10T22:53:15.675Z,9.50
2023-05-10T22:55:42.636Z,7.90
2023-05-10T22:58:10.370Z,7.50
2023-05-10T23:00:38.411Z,6.60
2023-05-10T23:03:06.822Z,8.60
2023-05-10T23:05:35.791Z,7.80
2023-05-10T23:08:02.839Z,10.70
2023-05-10T23:10:29.705Z,7.30
2023-05-10T23:12:56.717Z,8.30
2023-05-10T23:15:23.758Z,8.70
2023-05-10T23:17:51.073Z,7.30
2023-05-10T23:20:18.780Z,5.60
2023-05-10T23:22:46.011Z,6.40
2023-05-10T23:25:13.133Z,7.00
2023-05-10T23:27:40.279Z,8.40
2023-05-10T23:30:07.875Z,6.50
2023-05-10T23:32:34.833Z,8.00
2023-05-10T23:35:02.294Z,7.80
2023-05-10T23:37:29.521Z,7.30
2023-05-10T23:39:56.670Z,7.10
2023-05-10T23:42:23.553Z,8.30
2023-05-10T23:44:53.836Z,8.50
2023-05-10T23:47:20.851Z,6.50
2023-05-10T23:49:49.671Z,7.60
2023-05-10T23:52:16.587Z,9.00
2023-05-10T23:54:45.757Z,7.60
2023-05-10T23:57:12.916Z,7.70
2023-05-10T23:59:39.790Z,8.60
